Time;durP1;ratioP1;P1;durP2;ratioP2;P2;SDS_P1;SDS_P2;PMS_P1;PMS_P2;Temp;Humidity;BMP_temperature;BMP_pressure;BME280_temperature;BME280_humidity;BME280_pressure;Samples;Min_cycle;Max_cycle;Signal;HPM_P1;HPM_P2
2023/12/14 00:01:56;;;;;;;8.60;8.50;;;8.20;99.90;;;;;;5078300;28;20875;-71
2023/12/14 00:04:24;;;;;;;8.80;8.70;;;8.20;99.90;;;;;;5070668;28;20515;-71
2023/12/14 00:06:51;;;;;;;9.20;9.00;;;8.20;99.90;;;;;;5091668;28;20462;-69
2023/12/14 00:09:19;;;;;;;9.60;9.40;;;8.20;99.90;;;;;;5079254;28;20487;-69
2023/12/14 00:11:46;;;;;;;9.40;9.20;;;8.20;99.90;;;;;;5088748;28;20462;-69
2023/12/14 00:14:13;;;;;;;8.70;8.60;;;8.20;99.90;;;;;;5079528;28;20580;-69
2023/12/14 00:16:40;;;;;;;9.43;9.23;;;8.20;99.90;;;;;;5089255;28;20473;-69
2023/12/14 00:19:08;;;;;;;9.80;9.60;;;8.20;99.90;;;;;;5082205;28;20838;-71
2023/12/14 00:21:36;;;;;;;9.60;9.40;;;8.30;99.90;;;;;;5076728;28;20466;-70
2023/12/14 00:24:03;;;;;;;9.47;9.27;;;8.30;99.90;;;;;;5084308;28;20478;-70
2023/12/14 00:26:30;;;;;;;9.90;9.70;;;8.30;99.90;;;;;;5084383;28;20467;-70
2023/12/14 00:28:57;;;;;;;10.00;9.80;;;8.30;99.90;;;;;;5084616;28;20915;-71
2023/12/14 00:31:23;;;;;;;9.20;9.00;;;8.30;99.90;;;;;;5089139;28;20654;-71
2023/12/14 00:33:50;;;;;;;10.13;9.93;;;8.30;99.90;;;;;;5075106;28;20769;-72
2023/12/14 00:36:21;;;;;;;9.50;9.30;;;8.30;99.90;;;;;;5084077;28;20462;-70
2023/12/14 00:38:49;;;;;;;9.50;9.30;;;8.40;99.90;;;;;;5078819;28;20485;-71
2023/12/14 00:41:17;;;;;;;9.87;9.67;;;8.30;99.90;;;;;;5088005;28;20516;-71
2023/12/14 00:43:44;;;;;;;8.90;8.80;;;8.30;99.90;;;;;;5083078;28;20471;-70
2023/12/14 00:46:11;;;;;;;9.30;9.10;;;8.30;99.90;;;;;;5080591;28;21038;-71
2023/12/14 00:48:38;;;;;;;10.13;9.93;;;8.30;99.90;;;;;;5077463;28;20482;-69
2023/12/14 00:51:05;;;;;;;10.33;10.13;;;8.40;99.90;;;;;;5090810;28;20936;-71
2023/12/14 00:53:33;;;;;;;9.33;9.13;;;8.40;99.90;;;;;;5085128;28;20462;-71
2023/12/14 00:56:02;;;;;;;10.00;9.80;;;8.30;99.90;;;;;;5090101;28;20454;-70
2023/12/14 00:58:28;;;;;;;8.63;8.53;;;8.40;99.90;;;;;;5079448;28;20971;-70
2023/12/14 01:00:55;;;;;;;8.60;8.50;;;8.40;99.90;;;;;;5086656;28;21198;-70
2023/12/14 01:03:22;;;;;;;9.13;8.97;;;8.30;99.90;;;;;;5089173;28;20454;-71
2023/12/14 01:05:49;;;;;;;9.37;9.17;;;8.30;99.90;;;;;;5088377;28;20553;-72
2023/12/14 01:08:16;;;;;;;9.57;9.37;;;8.30;99.90;;;;;;5074445;28;21070;-70
2023/12/14 01:10:44;;;;;;;10.63;10.43;;;8.30;99.90;;;;;;5081156;28;20504;-70
2023/12/14 01:13:13;;;;;;;8.20;8.10;;;8.40;99.90;;;;;;5090175;28;21040;-70
2023/12/14 01:15:40;;;;;;;8.40;8.30;;;8.30;99.90;;;;;;5089781;28;20953;-71
2023/12/14 01:18:07;;;;;;;8.20;8.10;;;8.30;99.90;;;;;;5081418;28;20462;-71
2023/12/14 01:20:34;;;;;;;7.97;7.87;;;8.30;99.90;;;;;;5081485;28;20965;-71
2023/12/14 01:23:02;;;;;;;8.30;8.20;;;8.20;99.90;;;;;;5088849;28;20467;-71
2023/12/14 01:25:29;;;;;;;8.40;8.30;;;8.20;99.90;;;;;;5084403;28;20483;-70
2023/12/14 01:27:55;;;;;;;7.33;7.23;;;8.10;99.90;;;;;;5074062;28;21026;-69
2023/12/14 01:30:24;;;;;;;7.53;7.43;;;8.10;99.90;;;;;;5083451;28;20473;-70
2023/12/14 01:32:52;;;;;;;7.87;7.77;;;8.00;99.90;;;;;;5097283;28;20541;-70
2023/12/14 01:35:19;;;;;;;8.47;8.37;;;8.00;99.90;;;;;;5082434;28;20466;-70
2023/12/14 01:37:45;;;;;;;8.80;8.70;;;8.00;99.90;;;;;;5079315;28;20470;-70
2023/12/14 01:40:13;;;;;;;9.63;9.43;;;8.00;99.90;;;;;;5080661;28;20511;-70
2023/12/14 01:42:40;;;;;;;10.50;10.30;;;7.90;99.90;;;;;;5089586;28;20583;-73
2023/12/14 01:45:08;;;;;;;10.10;9.90;;;7.90;99.90;;;;;;5088848;28;20925;-70
2023/12/14 01:47:36;;;;;;;8.97;8.87;;;7.90;99.90;;;;;;5078852;28;20463;-73
2023/12/14 01:50:03;;;;;;;9.87;9.67;;;7.90;99.90;;;;;;5087927;28;21016;-70
2023/12/14 01:52:30;;;;;;;9.53;9.33;;;7.70;99.90;;;;;;5075088;28;20459;-71
2023/12/14 01:54:58;;;;;;;9.40;9.20;;;7.70;99.90;;;;;;5089423;28;20458;-70
2023/12/14 01:57:25;;;;;;;9.80;9.60;;;7.60;99.90;;;;;;5077198;28;20911;-70
2023/12/14 01:59:52;;;;;;;10.60;10.40;;;7.60;99.90;;;;;;5086502;28;20508;-70
2023/12/14 02:02:20;;;;;;;11.00;10.80;;;7.50;99.90;;;;;;5088432;28;20462;-71
2023/12/14 02:04:48;;;;;;;10.47;10.27;;;7.40;99.90;;;;;;5089174;28;20474;-71
2023/12/14 02:07:15;;;;;;;11.10;10.90;;;7.30;99.90;;;;;;5088980;28;20462;-73
2023/12/14 02:09:42;;;;;;;10.37;10.17;;;7.20;99.90;;;;;;5077350;28;20494;-73
2023/12/14 02:12:09;;;;;;;9.53;9.33;;;7.10;99.90;;;;;;5082845;28;20454;-72
2023/12/14 02:14:36;;;;;;;10.20;10.00;;;7.10;99.90;;;;;;5082995;28;20524;-72
2023/12/14 02:17:03;;;;;;;10.80;10.60;;;7.10;99.90;;;;;;5088686;28;20463;-71
2023/12/14 02:19:30;;;;;;;10.50;10.30;;;7.20;99.90;;;;;;5090391;28;20454;-72
2023/12/14 02:21:58;;;;;;;10.17;9.97;;;7.10;99.90;;;;;;5072041;28;20467;-71
2023/12/14 02:24:26;;;;;;;10.63;10.43;;;7.00;99.90;;;;;;5084926;28;20486;-74
2023/12/14 02:26:52;;;;;;;11.43;11.20;;;7.10;99.90;;;;;;5088917;28;20462;-72
2023/12/14 02:29:19;;;;;;;11.50;11.20;;;7.10;99.90;;;;;;5079301;28;20482;-74
2023/12/14 02:31:48;;;;;;;10.57;10.37;;;7.10;99.90;;;;;;5092434;28;20488;-71
2023/12/14 02:34:15;;;;;;;10.20;10.00;;;7.10;99.90;;;;;;5080922;28;20466;-73
2023/12/14 02:36:42;;;;;;;10.20;10.00;;;7.00;99.90;;;;;;5087559;28;20850;-72
2023/12/14 02:39:09;;;;;;;10.47;10.27;;;7.00;99.90;;;;;;5084501;28;20473;-72
2023/12/14 02:41:37;;;;;;;10.23;10.03;;;7.00;99.90;;;;;;5088502;28;21054;-73
2023/12/14 02:44:04;;;;;;;10.00;9.80;;;6.90;99.90;;;;;;5082313;28;20464;-74
2023/12/14 02:46:31;;;;;;;9.73;9.53;;;6.90;99.90;;;;;;5079529;28;20493;-72
2023/12/14 02:48:59;;;;;;;9.40;9.20;;;7.00;99.90;;;;;;5087708;28;20502;-73
2023/12/14 02:51:26;;;;;;;9.90;9.70;;;6.90;99.90;;;;;;5074806;28;20463;-73
2023/12/14 02:53:53;;;;;;;9.47;9.27;;;6.80;99.90;;;;;;5078742;28;20548;-71
2023/12/14 02:56:19;;;;;;;9.80;9.60;;;6.80;99.90;;;;;;5082141;28;20545;-71
2023/12/14 02:58:51;;;;;;;9.53;9.33;;;6.90;99.90;;;;;;5088334;28;21050;-72
2023/12/14 03:01:20;;;;;;;9.43;9.23;;;6.80;99.90;;;;;;5086179;28;20465;-72
2023/12/14 03:03:48;;;;;;;8.83;8.73;;;6.80;99.90;;;;;;5075417;28;20522;-72
2023/12/14 03:06:15;;;;;;;8.50;8.40;;;6.70;99.90;;;;;;5087785;28;20981;-72
2023/12/14 03:08:42;;;;;;;8.60;8.50;;;6.70;99.90;;;;;;5085204;28;20479;-71
2023/12/14 03:11:09;;;;;;;9.20;9.10;;;6.70;99.90;;;;;;5092154;28;20461;-71
2023/12/14 03:13:36;;;;;;;8.70;8.60;;;6.70;99.90;;;;;;5086163;28;20473;-71
2023/12/14 03:16:05;;;;;;;8.80;8.70;;;6.70;99.90;;;;;;5089980;28;20459;-71
2023/12/14 03:18:33;;;;;;;8.83;8.73;;;6.70;99.90;;;;;;5084627;28;20466;-72
2023/12/14 03:21:00;;;;;;;8.60;8.50;;;6.70;99.90;;;;;;5092322;28;20476;-71
2023/12/14 03:23:27;;;;;;;8.67;8.57;;;6.70;99.90;;;;;;5091924;28;20459;-71
2023/12/14 03:25:54;;;;;;;8.57;8.47;;;6.70;99.90;;;;;;5091949;28;20486;-71
2023/12/14 03:28:21;;;;;;;8.80;8.70;;;6.60;99.90;;;;;;5086688;28;20573;-71
2023/12/14 03:30:48;;;;;;;9.50;9.30;;;6.60;99.90;;;;;;5088027;28;20456;-71
2023/12/14 03:33:18;;;;;;;9.67;9.47;;;6.60;99.90;;;;;;5075917;28;20832;-71
2023/12/14 03:35:46;;;;;;;10.20;10.00;;;6.60;99.90;;;;;;5091637;28;20539;-71
2023/12/14 03:38:14;;;;;;;8.83;8.73;;;6.60;99.90;;;;;;5084167;28;20471;-71
2023/12/14 03:40:41;;;;;;;8.67;8.57;;;6.50;99.90;;;;;;5091647;28;20450;-71
2023/12/14 03:43:09;;;;;;;9.10;9.00;;;6.50;99.90;;;;;;5092054;28;20463;-71
2023/12/14 03:45:36;;;;;;;9.53;9.33;;;6.40;99.90;;;;;;5087916;28;20454;-71
2023/12/14 03:48:03;;;;;;;8.80;8.70;;;6.40;99.90;;;;;;5080572;28;20817;-72
2023/12/14 03:50:32;;;;;;;8.80;8.70;;;6.40;99.90;;;;;;5075912;28;20493;-72
2023/12/14 03:52:59;;;;;;;9.70;9.50;;;6.40;99.90;;;;;;5090079;28;20998;-72
2023/12/14 03:55:26;;;;;;;9.70;9.50;;;6.50;99.90;;;;;;5094312;28;20534;-72
2023/12/14 03:57:53;;;;;;;8.73;8.63;;;6.40;99.90;;;;;;5091845;28;20469;-72
2023/12/14 04:00:20;;;;;;;9.20;9.10;;;6.40;99.90;;;;;;5081763;28;20492;-72
2023/12/14 04:02:47;;;;;;;7.70;7.60;;;6.30;99.90;;;;;;5077920;28;20466;-72
2023/12/14 04:05:15;;;;;;;7.70;7.60;;;6.20;99.90;;;;;;5088312;28;20461;-72
2023/12/14 04:07:43;;;;;;;7.97;7.87;;;6.20;99.90;;;;;;5086187;28;21381;-72
2023/12/14 04:10:11;;;;;;;8.07;7.97;;;6.20;99.90;;;;;;5085086;28;20496;-72
2023/12/14 04:15:33;;;;;;;8.37;8.27;;;6.20;99.90;;;;;;5081442;28;20799;-71
2023/12/14 04:18:00;;;;;;;7.93;7.83;;;6.20;99.90;;;;;;5087557;28;20459;-71
2023/12/14 04:20:27;;;;;;;8.40;8.30;;;6.20;99.90;;;;;;5081211;28;20466;-73
2023/12/14 04:22:56;;;;;;;8.80;8.70;;;6.20;99.90;;;;;;5088248;28;20466;-71
2023/12/14 04:25:24;;;;;;;8.37;8.27;;;6.20;99.90;;;;;;5082126;28;20485;-72
2023/12/14 04:27:51;;;;;;;8.80;8.70;;;6.20;99.90;;;;;;5088836;28;20454;-72
2023/12/14 04:30:19;;;;;;;8.40;8.30;;;6.20;99.90;;;;;;5090467;28;20489;-73
2023/12/14 04:32:47;;;;;;;8.87;8.77;;;6.20;99.90;;;;;;5089755;28;20495;-73
2023/12/14 04:35:14;;;;;;;8.37;8.27;;;6.20;99.90;;;;;;5077902;28;20488;-72
2023/12/14 04:37:43;;;;;;;8.10;8.00;;;6.20;99.90;;;;;;5077167;28;20455;-71
2023/12/14 04:40:12;;;;;;;8.17;8.07;;;6.20;99.90;;;;;;5090756;28;20473;-73
2023/12/14 04:42:39;;;;;;;8.70;8.60;;;6.20;99.90;;;;;;5087935;28;20454;-72
2023/12/14 04:45:07;;;;;;;9.60;9.40;;;6.20;99.90;;;;;;5082291;28;20465;-75
2023/12/14 04:47:34;;;;;;;8.70;8.60;;;6.20;99.90;;;;;;5088912;28;20465;-75
2023/12/14 04:50:03;;;;;;;8.40;8.30;;;6.20;99.90;;;;;;5078516;28;20487;-71
2023/12/14 04:52:30;;;;;;;8.60;8.50;;;6.10;99.90;;;;;;5089571;28;20965;-73
2023/12/14 04:54:58;;;;;;;9.53;9.33;;;6.10;99.90;;;;;;5080590;28;20881;-74
2023/12/14 04:57:26;;;;;;;9.40;9.20;;;6.20;99.90;;;;;;5091899;28;20458;-72
2023/12/14 04:59:53;;;;;;;10.20;10.00;;;6.20;99.90;;;;;;5086446;28;20984;-75
2023/12/14 05:02:20;;;;;;;9.63;9.43;;;6.20;99.90;;;;;;5084690;28;20463;-75
2023/12/14 05:04:47;;;;;;;10.27;10.07;;;6.20;99.90;;;;;;5089790;28;20451;-75
2023/12/14 05:07:15;;;;;;;10.67;10.47;;;6.20;99.90;;;;;;5085607;28;20473;-73
2023/12/14 05:09:42;;;;;;;10.40;10.20;;;6.30;99.90;;;;;;5076221;28;20482;-71
2023/12/14 05:12:09;;;;;;;10.03;9.83;;;6.20;99.90;;;;;;5084133;28;20458;-72
2023/12/14 05:14:38;;;;;;;10.60;10.40;;;6.10;99.90;;;;;;5079534;28;20465;-73
2023/12/14 05:17:05;;;;;;;10.73;10.53;;;6.20;99.90;;;;;;5085582;28;20798;-72
2023/12/14 05:19:33;;;;;;;10.90;10.70;;;6.20;99.90;;;;;;5077725;28;20530;-77
2023/12/14 05:22:00;;;;;;;10.90;10.70;;;6.10;99.90;;;;;;5083365;28;20551;-72
2023/12/14 05:24:27;;;;;;;10.10;9.90;;;6.00;99.90;;;;;;5081846;28;20555;-73
2023/12/14 05:26:54;;;;;;;10.50;10.30;;;6.00;99.90;;;;;;5074732;28;20474;-74
2023/12/14 05:29:23;;;;;;;10.07;9.87;;;6.00;99.90;;;;;;5067781;28;20487;-71
2023/12/14 05:31:51;;;;;;;10.50;10.30;;;6.00;99.90;;;;;;5082933;28;20480;-75
2023/12/14 05:34:18;;;;;;;10.50;10.30;;;6.00;99.90;;;;;;5080129;28;20481;-71
2023/12/14 05:36:45;;;;;;;10.90;10.70;;;5.90;99.90;;;;;;5079756;28;21833;-73
2023/12/14 05:39:12;;;;;;;10.37;10.17;;;5.90;99.90;;;;;;5079583;28;20450;-71
2023/12/14 05:41:41;;;;;;;10.90;10.70;;;5.90;99.90;;;;;;5073663;28;20467;-72
2023/12/14 05:44:09;;;;;;;10.00;9.80;;;5.90;99.90;;;;;;5073683;28;20492;-71
2023/12/14 05:46:36;;;;;;;10.47;10.27;;;5.80;99.90;;;;;;5081215;28;20450;-74
2023/12/14 05:49:05;;;;;;;10.40;10.20;;;5.90;99.90;;;;;;5076962;28;20462;-72
2023/12/14 05:51:33;;;;;;;10.70;10.50;;;5.80;99.90;;;;;;5084433;28;20454;-75
2023/12/14 05:54:01;;;;;;;10.80;10.60;;;5.90;99.90;;;;;;5078694;28;20454;-73
2023/12/14 05:56:29;;;;;;;10.97;10.77;;;5.90;99.90;;;;;;5085137;28;20454;-70
2023/12/14 05:58:56;;;;;;;10.43;10.23;;;5.90;99.90;;;;;;5081711;28;20557;-73
2023/12/14 06:01:24;;;;;;;10.53;10.33;;;5.80;99.90;;;;;;5079058;28;20949;-73
2023/12/14 06:03:54;;;;;;;10.90;10.70;;;5.80;99.90;;;;;;5065734;28;20461;-71
2023/12/14 06:06:23;;;;;;;11.70;11.40;;;5.80;99.90;;;;;;5091436;28;20530;-72
2023/12/14 06:08:50;;;;;;;12.40;12.10;;;5.90;99.90;;;;;;5083301;28;20548;-71
2023/12/14 06:11:18;;;;;;;11.00;10.80;;;6.00;99.90;;;;;;5080635;28;21005;-73
2023/12/14 06:13:44;;;;;;;11.20;11.00;;;5.90;99.90;;;;;;5074441;28;21261;-74
2023/12/14 06:16:12;;;;;;;11.50;11.30;;;5.90;99.90;;;;;;5067208;28;20841;-71
2023/12/14 06:18:41;;;;;;;12.00;11.70;;;5.80;99.90;;;;;;5081376;28;20450;-73
2023/12/14 06:21:09;;;;;;;11.70;11.40;;;5.80;99.90;;;;;;5086023;28;20906;-72
2023/12/14 06:23:39;;;;;;;11.60;11.30;;;5.80;99.90;;;;;;5086816;28;21044;-72
2023/12/14 06:26:06;;;;;;;11.30;11.10;;;5.80;99.90;;;;;;5080562;28;20465;-71
2023/12/14 06:28:33;;;;;;;11.37;11.17;;;5.80;99.90;;;;;;5074676;28;21052;-73
2023/12/14 06:31:01;;;;;;;11.80;11.50;;;5.80;99.90;;;;;;5081482;28;20500;-71
2023/12/14 06:33:27;;;;;;;10.83;10.63;;;5.90;99.90;;;;;;5077035;28;20542;-74
2023/12/14 06:35:54;;;;;;;11.20;11.00;;;5.80;99.90;;;;;;5071057;28;20468;-72
2023/12/14 06:38:21;;;;;;;10.80;10.60;;;5.80;99.90;;;;;;5072432;28;20467;-74
2023/12/14 06:40:49;;;;;;;10.77;10.57;;;5.80;99.90;;;;;;5071354;28;20469;-71
2023/12/14 06:43:16;;;;;;;10.87;10.67;;;5.80;99.90;;;;;;5076643;28;20502;-73
2023/12/14 06:45:44;;;;;;;11.60;11.30;;;5.70;99.90;;;;;;5074495;28;20850;-71
2023/12/14 06:48:11;;;;;;;11.57;11.27;;;5.70;99.90;;;;;;5073670;28;20468;-71
2023/12/14 06:50:38;;;;;;;11.80;11.50;;;5.80;99.90;;;;;;5072698;28;21084;-71
2023/12/14 06:53:06;;;;;;;11.70;11.40;;;5.70;99.90;;;;;;5072009;28;20475;-73
2023/12/14 06:55:33;;;;;;;11.50;11.20;;;5.70;99.90;;;;;;5074597;28;20552;-73
2023/12/14 06:58:01;;;;;;;10.80;10.60;;;5.70;99.90;;;;;;5073973;28;20485;-73
2023/12/14 07:00:29;;;;;;;11.40;11.20;;;5.70;99.90;;;;;;5073815;28;20469;-74
2023/12/14 07:02:56;;;;;;;11.00;10.80;;;5.60;99.90;;;;;;5074720;28;20462;-71
2023/12/14 07:05:22;;;;;;;10.80;10.60;;;5.60;99.90;;;;;;5073172;28;20460;-73
2023/12/14 07:07:49;;;;;;;12.13;11.83;;;5.60;99.90;;;;;;5068851;28;20836;-74
2023/12/14 07:10:16;;;;;;;10.90;10.70;;;5.60;99.90;;;;;;5069422;28;20513;-72
2023/12/14 07:12:44;;;;;;;11.80;11.50;;;5.60;99.90;;;;;;5074612;28;20462;-72
2023/12/14 07:15:13;;;;;;;12.03;11.73;;;5.70;99.90;;;;;;5073654;28;20960;-73
2023/12/14 07:17:40;;;;;;;11.83;11.53;;;5.70;99.90;;;;;;5073894;28;20470;-73
2023/12/14 07:20:08;;;;;;;11.50;11.20;;;5.70;99.90;;;;;;5072009;28;20474;-71
2023/12/14 07:22:35;;;;;;;11.80;11.50;;;5.70;99.90;;;;;;5072329;28;20969;-73
2023/12/14 07:25:02;;;;;;;11.83;11.53;;;5.70;99.90;;;;;;5071569;28;20518;-71
2023/12/14 07:27:29;;;;;;;10.37;10.17;;;5.70;99.90;;;;;;5074370;28;20476;-70
2023/12/14 07:29:55;;;;;;;11.20;11.00;;;5.60;99.90;;;;;;5074319;28;20877;-73
2023/12/14 07:32:23;;;;;;;11.40;11.10;;;5.60;99.90;;;;;;5073158;28;20463;-72
2023/12/14 07:34:50;;;;;;;12.00;11.70;;;5.50;99.90;;;;;;5075031;28;20462;-71
2023/12/14 07:37:17;;;;;;;11.10;10.90;;;5.60;99.90;;;;;;5072769;28;20869;-71
2023/12/14 07:39:44;;;;;;;11.53;11.23;;;5.50;99.90;;;;;;5074573;28;20509;-73
2023/12/14 07:42:17;;;;;;;11.80;11.50;;;5.50;99.90;;;;;;5077090;28;20507;-72
2023/12/14 07:44:44;;;;;;;11.73;11.43;;;5.50;99.90;;;;;;5074537;28;20969;-72
2023/12/14 07:47:11;;;;;;;11.80;11.50;;;5.50;99.90;;;;;;5075377;28;21017;-72
2023/12/14 07:49:39;;;;;;;11.30;11.00;;;5.50;99.90;;;;;;5073353;28;20471;-74
2023/12/14 07:52:07;;;;;;;11.20;11.00;;;5.50;99.90;;;;;;5080123;28;20554;-71
2023/12/14 07:54:34;;;;;;;12.40;12.10;;;5.40;99.90;;;;;;5077619;28;20462;-73
2023/12/14 07:57:01;;;;;;;12.57;12.27;;;5.40;99.90;;;;;;5077797;28;20473;-74
2023/12/14 07:59:29;;;;;;;12.30;12.00;;;5.40;99.90;;;;;;5080526;28;20857;-72
2023/12/14 08:01:56;;;;;;;12.50;12.20;;;5.40;99.90;;;;;;5078841;28;20463;-72
2023/12/14 08:04:23;;;;;;;12.70;12.40;;;5.40;99.90;;;;;;5078702;28;20455;-71
2023/12/14 08:06:52;;;;;;;12.60;12.30;;;5.50;99.90;;;;;;5078298;28;21014;-74
2023/12/14 08:09:19;;;;;;;12.00;11.70;;;5.50;99.90;;;;;;5073156;28;20493;-73
2023/12/14 08:11:46;;;;;;;11.43;11.13;;;5.40;99.90;;;;;;5077281;28;20879;-72
2023/12/14 08:14:13;;;;;;;11.83;11.53;;;5.40;99.90;;;;;;5076507;28;20942;-74
2023/12/14 08:16:41;;;;;;;12.27;11.97;;;5.50;99.90;;;;;;5080674;28;20523;-72
2023/12/14 08:19:09;;;;;;;11.47;11.17;;;5.40;99.90;;;;;;5074421;28;20837;-74
2023/12/14 08:21:36;;;;;;;11.43;11.13;;;5.40;99.90;;;;;;5077168;28;20465;-73
2023/12/14 08:24:05;;;;;;;13.00;12.60;;;5.40;99.90;;;;;;5074670;28;20583;-73
2023/12/14 08:26:32;;;;;;;11.70;11.40;;;5.40;99.90;;;;;;5075597;28;20987;-73
2023/12/14 08:28:59;;;;;;;12.13;11.83;;;5.40;99.90;;;;;;5073431;28;20479;-71
2023/12/14 08:31:26;;;;;;;12.00;11.70;;;5.30;99.90;;;;;;5078411;28;20492;-73
2023/12/14 08:33:53;;;;;;;11.83;11.53;;;5.30;99.90;;;;;;5076964;28;20469;-73
2023/12/14 08:36:20;;;;;;;12.07;11.77;;;5.30;99.90;;;;;;5072983;28;20943;-73
2023/12/14 08:38:47;;;;;;;11.90;11.60;;;5.30;99.90;;;;;;5076380;28;20462;-72
2023/12/14 08:41:16;;;;;;;11.23;10.93;;;5.30;99.90;;;;;;5076220;28;21029;-73
2023/12/14 08:43:44;;;;;;;11.87;11.57;;;5.30;99.90;;;;;;5073455;28;20462;-72
2023/12/14 08:46:11;;;;;;;11.50;11.20;;;5.30;99.90;;;;;;5080792;28;20764;-72
2023/12/14 08:48:38;;;;;;;11.80;11.50;;;5.30;99.90;;;;;;5076767;28;20491;-72
2023/12/14 08:51:05;;;;;;;12.20;11.90;;;5.40;99.90;;;;;;5080218;28;20535;-71
2023/12/14 08:53:33;;;;;;;12.47;12.17;;;5.30;99.90;;;;;;5080511;28;20853;-73
2023/12/14 08:56:00;;;;;;;12.43;12.13;;;5.30;99.90;;;;;;5078344;28;20470;-72
2023/12/14 08:58:29;;;;;;;12.13;11.83;;;5.40;99.90;;;;;;5074956;28;20974;-71
2023/12/14 09:00:56;;;;;;;12.20;11.90;;;5.40;99.90;;;;;;5076579;28;20996;-73
2023/12/14 09:03:23;;;;;;;12.50;12.20;;;5.40;99.90;;;;;;5078249;28;20467;-71
2023/12/14 09:05:50;;;;;;;13.20;12.80;;;5.40;99.90;;;;;;5080088;28;20479;-72
2023/12/14 09:08:17;;;;;;;12.90;12.50;;;5.50;99.90;;;;;;5076497;28;20802;-71
2023/12/14 09:10:44;;;;;;;12.00;11.70;;;5.40;99.90;;;;;;5077711;28;20495;-72
2023/12/14 09:13:11;;;;;;;13.20;12.80;;;5.40;99.90;;;;;;5075824;28;20987;-73
2023/12/14 09:15:40;;;;;;;13.40;13.00;;;5.40;99.90;;;;;;5074599;28;20502;-71
2023/12/14 09:18:07;;;;;;;13.53;13.13;;;5.40;99.90;;;;;;5074495;28;20544;-72
2023/12/14 09:20:37;;;;;;;12.60;12.30;;;5.50;99.90;;;;;;5076188;28;20470;-71
2023/12/14 09:23:04;;;;;;;13.67;13.27;;;5.40;99.90;;;;;;5074718;28;20989;-73
2023/12/14 09:25:33;;;;;;;13.90;13.50;;;5.50;99.90;;;;;;5078124;28;20565;-70
2023/12/14 09:27:59;;;;;;;13.47;13.07;;;5.50;99.90;;;;;;5072435;28;20569;-70
2023/12/14 09:30:26;;;;;;;14.60;14.10;;;5.50;99.90;;;;;;5075951;28;20456;-74
2023/12/14 09:32:54;;;;;;;14.70;14.20;;;5.50;99.90;;;;;;5074461;28;20855;-74
2023/12/14 09:35:21;;;;;;;14.87;14.37;;;5.60;99.90;;;;;;5075589;28;20485;-72
2023/12/14 09:37:49;;;;;;;14.50;14.00;;;5.70;99.90;;;;;;5076071;28;20481;-71
2023/12/14 09:40:18;;;;;;;14.60;14.10;;;5.70;99.90;;;;;;5071314;28;20844;-75
2023/12/14 09:42:46;;;;;;;14.60;14.10;;;5.70;99.90;;;;;;5077027;28;20463;-71
2023/12/14 09:45:14;;;;;;;14.33;13.83;;;5.70;99.90;;;;;;5074695;28;20459;-71
2023/12/14 09:47:42;;;;;;;14.93;14.43;;;5.70;99.90;;;;;;5078543;28;21017;-74
2023/12/14 09:50:12;;;;;;;13.90;13.50;;;5.70;99.90;;;;;;5073372;28;21062;-71
2023/12/14 09:52:39;;;;;;;14.93;14.43;;;5.70;99.90;;;;;;5076852;28;20486;-72
2023/12/14 09:55:08;;;;;;;14.37;13.87;;;5.70;99.90;;;;;;5077563;28;20458;-73
2023/12/14 09:57:36;;;;;;;14.90;14.40;;;5.70;99.90;;;;;;5077561;28;20475;-74
2023/12/14 10:00:05;;;;;;;15.30;14.70;;;5.70;99.90;;;;;;5076528;28;20466;-74
2023/12/14 10:02:32;;;;;;;15.20;14.70;;;5.70;99.90;;;;;;5072671;28;20485;-72
2023/12/14 10:04:59;;;;;;;15.00;14.50;;;5.70;99.90;;;;;;5074229;28;20462;-72
2023/12/14 10:07:28;;;;;;;14.60;14.10;;;5.70;99.90;;;;;;5073822;28;20954;-72
2023/12/14 10:09:55;;;;;;;14.20;13.70;;;5.70;99.90;;;;;;5077128;28;20459;-73
2023/12/14 10:12:24;;;;;;;13.90;13.40;;;5.60;99.90;;;;;;5077470;28;20579;-73
2023/12/14 10:15:01;;;;;;;14.53;14.03;;;5.60;99.90;;;;;;5075790;28;20466;-73
2023/12/14 10:17:31;;;;;;;14.10;13.60;;;5.60;99.90;;;;;;5068249;28;20569;-74
2023/12/14 10:20:00;;;;;;;14.50;14.00;;;5.60;99.90;;;;;;5072702;28;20484;-73
2023/12/14 10:22:32;;;;;;;13.97;13.47;;;5.60;99.90;;;;;;5074528;28;20480;-72
2023/12/14 10:25:00;;;;;;;14.90;14.40;;;5.60;99.90;;;;;;5074793;28;20486;-73
2023/12/14 10:27:28;;;;;;;14.70;14.20;;;5.60;99.90;;;;;;5074105;28;20849;-74
2023/12/14 10:29:57;;;;;;;14.80;14.30;;;5.70;99.90;;;;;;5074930;28;20525;-70
2023/12/14 10:32:25;;;;;;;14.27;13.77;;;5.70;99.90;;;;;;5071627;28;20544;-74
2023/12/14 10:34:52;;;;;;;14.20;13.70;;;5.60;99.90;;;;;;5077248;28;20467;-72
2023/12/14 10:37:21;;;;;;;14.87;14.37;;;5.60;99.90;;;;;;5072131;28;20549;-72
2023/12/14 10:39:53;;;;;;;14.33;13.83;;;5.60;99.90;;;;;;5074461;28;20470;-74
2023/12/14 10:42:22;;;;;;;14.80;14.30;;;5.60;99.90;;;;;;5073347;28;20489;-72
2023/12/14 10:44:53;;;;;;;15.50;14.90;;;5.60;99.90;;;;;;5074229;28;20495;-71
2023/12/14 10:47:20;;;;;;;14.27;13.77;;;5.60;99.90;;;;;;5070704;28;20475;-72
2023/12/14 10:49:51;;;;;;;14.80;14.30;;;5.70;99.90;;;;;;5067427;28;21057;-74
2023/12/14 10:52:20;;;;;;;14.67;14.17;;;5.70;99.90;;;;;;5070925;28;20497;-74
2023/12/14 10:54:50;;;;;;;15.27;14.67;;;5.70;99.90;;;;;;5075223;28;20471;-71
2023/12/14 10:57:17;;;;;;;14.97;14.47;;;5.70;99.90;;;;;;5075123;28;20474;-73
2023/12/14 10:59:44;;;;;;;14.93;14.43;;;5.70;99.90;;;;;;5075321;28;20773;-71
2023/12/14 11:02:11;;;;;;;14.80;14.30;;;5.80;99.90;;;;;;5073935;28;20463;-71
2023/12/14 11:04:54;;;;;;;15.10;14.50;;;5.80;99.90;;;;;;5073646;28;20470;-69
2023/12/14 11:07:44;;;;;;;15.90;15.30;;;5.90;99.90;;;;;;5078154;28;20463;-71
2023/12/14 11:10:12;;;;;;;15.53;14.93;;;5.90;99.90;;;;;;5077485;28;20467;-73
2023/12/14 11:12:39;;;;;;;15.43;14.83;;;5.90;99.90;;;;;;5072421;28;20543;-73
2023/12/14 11:15:09;;;;;;;16.30;15.60;;;5.90;99.90;;;;;;5073866;28;20469;-73
2023/12/14 11:17:37;;;;;;;15.73;15.13;;;5.80;99.90;;;;;;5075619;28;20473;-70
2023/12/14 11:20:25;;;;;;;15.23;14.63;;;5.90;99.90;;;;;;5066841;28;20935;-71
2023/12/14 11:22:55;;;;;;;15.80;15.20;;;5.80;99.90;;;;;;5075992;28;20521;-73
2023/12/14 11:25:24;;;;;;;15.50;14.90;;;5.80;99.90;;;;;;5074301;28;20486;-71
2023/12/14 11:27:52;;;;;;;15.30;14.70;;;5.80;99.90;;;;;;5080024;28;20555;-72
2023/12/14 11:30:19;;;;;;;15.47;14.87;;;5.70;99.90;;;;;;5079026;28;20469;-70
2023/12/14 11:32:46;;;;;;;16.00;15.30;;;5.80;99.90;;;;;;5079533;28;20499;-73
2023/12/14 11:35:14;;;;;;;15.70;15.10;;;5.80;99.90;;;;;;5073137;28;20462;-71
2023/12/14 11:37:41;;;;;;;15.70;15.10;;;5.90;99.90;;;;;;5074964;28;20470;-74
2023/12/14 11:40:10;;;;;;;16.10;15.40;;;5.90;99.90;;;;;;5075608;28;20466;-71
2023/12/14 11:42:38;;;;;;;16.30;15.60;;;6.00;99.90;;;;;;5075158;28;20543;-73
2023/12/14 11:45:05;;;;;;;16.10;15.40;;;6.10;99.90;;;;;;5078189;28;20463;-73
2023/12/14 11:47:32;;;;;;;16.17;15.47;;;6.10;99.90;;;;;;5079871;28;20462;-71
2023/12/14 11:49:59;;;;;;;16.20;15.50;;;6.10;99.90;;;;;;5077130;28;20469;-70
2023/12/14 11:52:26;;;;;;;15.73;15.10;;;6.10;99.90;;;;;;5079801;28;20493;-73
2023/12/14 11:54:54;;;;;;;15.10;14.50;;;6.10;99.90;;;;;;5072595;28;20469;-72
2023/12/14 11:57:21;;;;;;;16.00;15.30;;;6.10;99.90;;;;;;5079063;28;20470;-73
2023/12/14 11:59:51;;;;;;;16.00;15.30;;;6.10;99.90;;;;;;5080585;28;20469;-71
2023/12/14 12:02:25;;;;;;;15.97;15.27;;;6.00;99.90;;;;;;5074034;28;20566;-71
2023/12/14 12:04:53;;;;;;;15.23;14.63;;;6.10;99.90;;;;;;5073526;28;20470;-71
2023/12/14 12:07:20;;;;;;;15.40;14.80;;;6.10;99.90;;;;;;5078982;28;20457;-74
2023/12/14 12:09:48;;;;;;;15.13;14.53;;;6.10;99.90;;;;;;5079019;28;20457;-71
2023/12/14 12:12:16;;;;;;;14.77;14.20;;;6.10;99.90;;;;;;5079153;28;20487;-72
2023/12/14 12:14:42;;;;;;;15.70;15.10;;;6.10;99.90;;;;;;5076351;28;20474;-71
2023/12/14 12:17:11;;;;;;;15.20;14.60;;;6.20;99.90;;;;;;5077081;28;20470;-72
2023/12/14 12:19:38;;;;;;;15.43;14.83;;;6.20;99.90;;;;;;5075966;28;20483;-71
2023/12/14 12:22:06;;;;;;;14.77;14.27;;;6.20;99.90;;;;;;5080049;28;20927;-70
2023/12/14 12:24:33;;;;;;;14.50;14.00;;;6.10;99.90;;;;;;5073861;28;20502;-73
2023/12/14 12:27:00;;;;;;;14.70;14.20;;;6.00;99.90;;;;;;5078267;28;20503;-71
2023/12/14 12:29:28;;;;;;;14.63;14.13;;;5.90;99.90;;;;;;5077762;28;20569;-72
2023/12/14 12:31:55;;;;;;;14.57;14.07;;;5.90;99.90;;;;;;5080747;28;20497;-71
2023/12/14 12:34:22;;;;;;;14.30;13.80;;;5.90;99.90;;;;;;5079601;28;20466;-72
2023/12/14 12:36:49;;;;;;;14.40;13.90;;;5.90;99.90;;;;;;5070939;28;20465;-72
2023/12/14 12:39:16;;;;;;;14.00;13.50;;;5.80;99.90;;;;;;5077543;28;20466;-70
2023/12/14 12:41:43;;;;;;;14.30;13.80;;;5.90;99.90;;;;;;5079749;28;20466;-72
2023/12/14 12:44:10;;;;;;;14.23;13.73;;;5.80;99.90;;;;;;5077519;28;20466;-71
2023/12/14 12:46:37;;;;;;;13.97;13.47;;;5.80;99.90;;;;;;5075664;28;20467;-72
2023/12/14 12:49:05;;;;;;;14.60;14.10;;;5.80;99.90;;;;;;5071530;28;20534;-70